Time;durP1;ratioP1;P1;durP2;ratioP2;P2;SDS_P1;SDS_P2;PMS_P1;PMS_P2;Temp;Humidity;BMP_temperature;BMP_pressure;BME280_temperature;BME280_humidity;BME280_pressure;Samples;Min_cycle;Max_cycle;Signal;HPM_P1;HPM_P2
2022/12/17 13:07:26;;;;;;;60.30;29.73;;;1.30;99.90;;;;;;4971934;28;20570;-63
2022/12/17 13:09:57;;;;;;;63.10;31.10;;;1.10;99.90;;;;;;4973160;28;20593;-63
2022/12/17 13:12:30;;;;;;;60.60;29.13;;;1.10;99.90;;;;;;4973147;28;20203;-63
2022/12/17 13:15:20;;;;;;;65.83;30.07;;;1.10;99.90;;;;;;4973101;28;20218;-63
2022/12/17 13:17:58;;;;;;;60.70;29.23;;;1.10;99.90;;;;;;4986368;28;20234;-63
2022/12/17 13:20:30;;;;;;;56.60;29.07;;;1.10;99.90;;;;;;4992586;28;20193;-63
2022/12/17 13:23:16;;;;;;;59.70;29.93;;;1.10;99.90;;;;;;4992428;28;20191;-63
2022/12/17 13:25:45;;;;;;;62.57;31.77;;;1.10;99.90;;;;;;4992900;28;20219;-63
2022/12/17 13:28:27;;;;;;;58.00;29.20;;;1.20;99.90;;;;;;4991088;28;20207;-63
2022/12/17 13:31:03;;;;;;;63.20;30.97;;;1.10;99.90;;;;;;4992509;28;20199;-63
2022/12/17 13:33:40;;;;;;;61.27;29.37;;;1.10;99.90;;;;;;4992260;28;20197;-63
2022/12/17 13:36:15;;;;;;;64.23;29.33;;;1.10;99.90;;;;;;4992176;28;20195;-63
2022/12/17 13:38:54;;;;;;;57.57;28.37;;;1.10;99.90;;;;;;4992183;28;20190;-64
2022/12/17 13:41:29;;;;;;;60.40;27.90;;;1.10;99.90;;;;;;4992680;28;20190;-63
2022/12/17 13:44:01;;;;;;;60.03;27.83;;;1.10;99.90;;;;;;4992112;28;20186;-64
2022/12/17 13:46:34;;;;;;;60.77;29.53;;;1.20;99.90;;;;;;4991733;28;20182;-64
2022/12/17 13:49:06;;;;;;;62.53;28.70;;;1.30;99.90;;;;;;4992391;28;20201;-63
2022/12/17 13:51:35;;;;;;;57.37;27.97;;;1.30;99.90;;;;;;4992469;28;20215;-63
2022/12/17 13:54:05;;;;;;;57.23;28.33;;;1.30;99.90;;;;;;4992232;28;20657;-61
2022/12/17 13:56:35;;;;;;;55.43;27.33;;;1.30;99.90;;;;;;4992361;28;20233;-61
2022/12/17 14:03:44;;;;;;;57.43;26.27;;;1.20;99.90;;;;;;4991886;28;20735;-64
2022/12/17 14:06:36;;;;;;;56.17;26.73;;;1.10;99.90;;;;;;4990484;28;20214;-64
2022/12/17 14:09:06;;;;;;;57.13;27.17;;;1.20;99.90;;;;;;4991925;28;20205;-63
2022/12/17 14:14:31;;;;;;;55.73;26.27;;;1.00;99.90;;;;;;4992215;28;20266;-63
2022/12/17 14:17:15;;;;;;;54.80;25.73;;;1.00;99.90;;;;;;4991845;28;20234;-63
2022/12/17 14:19:43;;;;;;;57.67;25.80;;;0.90;99.90;;;;;;4991877;28;20230;-61
2022/12/17 14:22:19;;;;;;;52.17;25.93;;;0.80;99.90;;;;;;4991621;28;20225;-61
2022/12/17 14:24:50;;;;;;;53.70;26.00;;;0.80;99.90;;;;;;4991540;28;20217;-63
2022/12/17 14:27:24;;;;;;;57.80;25.50;;;0.70;99.90;;;;;;4991793;28;20195;-63
2022/12/17 14:29:53;;;;;;;48.90;24.23;;;0.60;99.90;;;;;;4991825;28;20192;-63
2022/12/17 14:32:26;;;;;;;52.07;25.17;;;0.50;99.90;;;;;;4990155;28;20292;-63
2022/12/17 14:44:20;;;;;;;57.47;25.60;;;0.30;99.90;;;;;;4991352;28;20678;-63
2022/12/17 14:47:07;;;;;;;58.27;26.80;;;0.20;99.90;;;;;;4991205;28;20206;-63
2022/12/17 14:54:06;;;;;;;59.43;26.70;;;0.10;99.90;;;;;;4990023;28;20641;-64
2022/12/17 14:56:34;;;;;;;55.40;26.13;;;0.00;99.90;;;;;;4991319;28;20186;-63
2022/12/17 14:59:02;;;;;;;55.63;27.37;;;0.00;99.90;;;;;;4990788;28;20202;-63
2022/12/17 15:01:33;;;;;;;57.73;27.60;;;-0.10;99.90;;;;;;4990964;28;20219;-64
2022/12/17 15:04:03;;;;;;;57.43;27.43;;;-0.10;99.90;;;;;;4991219;28;20226;-63
2022/12/17 15:06:31;;;;;;;56.40;26.73;;;-0.10;99.90;;;;;;4984859;28;20200;-63
2022/12/17 15:08:59;;;;;;;56.47;27.30;;;-0.20;99.90;;;;;;4970227;28;20195;-63
2022/12/17 15:11:28;;;;;;;58.13;27.33;;;-0.20;99.90;;;;;;4971676;28;20215;-64
2022/12/17 15:13:56;;;;;;;59.27;26.97;;;-0.30;99.90;;;;;;4970864;28;20270;-63
2022/12/17 15:16:24;;;;;;;59.87;27.43;;;-0.30;99.90;;;;;;4970065;28;20238;-63
2022/12/17 15:18:54;;;;;;;61.10;28.60;;;-0.40;99.90;;;;;;4971628;28;20268;-63
2022/12/17 15:21:23;;;;;;;62.57;28.17;;;-0.40;99.90;;;;;;4971130;28;20198;-64
2022/12/17 15:23:52;;;;;;;65.53;29.07;;;-0.50;99.90;;;;;;4969874;28;20191;-65
2022/12/17 15:26:20;;;;;;;64.60;29.53;;;-0.60;99.90;;;;;;4971645;28;20212;-63
2022/12/17 15:28:48;;;;;;;64.73;30.17;;;-0.70;99.90;;;;;;4969996;28;20677;-63
2022/12/17 15:31:19;;;;;;;58.50;29.30;;;-0.80;99.90;;;;;;4970857;28;20227;-64
2022/12/17 15:33:53;;;;;;;64.80;29.90;;;-0.90;99.90;;;;;;4971116;28;20222;-64
2022/12/17 15:36:22;;;;;;;71.33;31.93;;;-1.00;99.90;;;;;;4971210;28;20195;-63
2022/12/17 15:38:52;;;;;;;63.03;29.47;;;-1.10;99.90;;;;;;4951772;28;20200;-63
2022/12/17 15:44:07;;;;;;;68.33;31.80;;;-1.20;99.90;;;;;;4960436;28;20211;-63
2022/12/17 15:46:36;;;;;;;66.90;31.00;;;-1.30;99.90;;;;;;4969510;28;20554;-64
2022/12/17 15:49:06;;;;;;;63.37;29.57;;;-1.40;99.90;;;;;;4970623;28;20202;-63
2022/12/17 15:51:34;;;;;;;64.07;31.47;;;-1.50;99.90;;;;;;4991405;28;20585;-63
2022/12/17 15:54:02;;;;;;;68.70;30.23;;;-1.60;99.90;;;;;;4970663;28;20200;-63
2022/12/17 15:56:31;;;;;;;62.37;29.07;;;-1.60;99.90;;;;;;4996181;28;20192;-63
2022/12/17 15:58:59;;;;;;;62.63;29.53;;;-1.70;99.90;;;;;;4969263;28;20188;-63
2022/12/17 16:01:28;;;;;;;66.10;29.80;;;-1.80;99.90;;;;;;4970372;28;20187;-63
2022/12/17 16:03:57;;;;;;;63.30;28.97;;;-1.90;99.90;;;;;;4969803;28;20585;-63
2022/12/17 16:06:27;;;;;;;61.87;29.17;;;-2.00;99.90;;;;;;4969952;28;20578;-63
2022/12/17 16:08:55;;;;;;;64.70;29.83;;;-2.00;99.90;;;;;;4970432;28;20282;-64
2022/12/17 16:11:23;;;;;;;73.70;31.30;;;-2.10;99.90;;;;;;4977064;28;20223;-63
2022/12/17 16:13:54;;;;;;;73.33;30.37;;;-2.20;99.90;;;;;;4964551;28;20204;-63
2022/12/17 16:16:23;;;;;;;66.73;30.23;;;-2.20;99.90;;;;;;4969746;28;20239;-63
2022/12/17 16:18:52;;;;;;;68.20;31.40;;;-2.30;99.90;;;;;;4971913;28;20203;-64
2022/12/17 16:21:20;;;;;;;79.93;31.87;;;-2.30;99.90;;;;;;4976242;28;20195;-63
2022/12/17 16:23:50;;;;;;;71.47;30.97;;;-2.40;99.90;;;;;;4973934;28;20211;-63
2022/12/17 16:26:18;;;;;;;75.60;32.37;;;-2.40;99.90;;;;;;4977598;28;20223;-63
2022/12/17 16:28:46;;;;;;;67.77;32.70;;;-2.50;99.90;;;;;;4971650;28;20199;-63
2022/12/17 16:31:15;;;;;;;77.40;34.60;;;-2.60;99.90;;;;;;4985999;28;20646;-63
2022/12/17 16:33:46;;;;;;;82.87;35.73;;;-2.60;99.90;;;;;;4989638;28;20208;-64
2022/12/17 16:36:17;;;;;;;89.00;38.47;;;-2.60;99.90;;;;;;4971740;28;20179;-63
2022/12/17 16:38:46;;;;;;;94.40;37.37;;;-2.60;99.90;;;;;;4989096;28;20196;-63
2022/12/17 16:41:18;;;;;;;86.87;37.23;;;-2.50;99.90;;;;;;4974052;28;20184;-64
2022/12/17 16:43:47;;;;;;;93.47;38.50;;;-2.40;99.90;;;;;;4957453;28;20192;-64
2022/12/17 16:46:27;;;;;;;97.47;39.17;;;-2.30;99.90;;;;;;4963090;28;20566;-63
2022/12/17 16:48:57;;;;;;;92.67;38.83;;;-2.20;99.90;;;;;;4967473;28;20199;-63
2022/12/17 16:51:27;;;;;;;91.53;38.33;;;-2.30;99.90;;;;;;4969908;28;20282;-64
2022/12/17 16:53:57;;;;;;;97.83;39.40;;;-2.20;99.90;;;;;;4981435;28;20200;-63
2022/12/17 16:56:28;;;;;;;93.50;38.13;;;-2.30;99.90;;;;;;4963916;28;20674;-64
2022/12/17 16:58:56;;;;;;;106.77;41.87;;;-2.20;99.90;;;;;;4998523;28;20204;-63
2022/12/17 17:01:29;;;;;;;101.83;42.63;;;-2.20;99.90;;;;;;4966890;28;20196;-63
2022/12/17 17:04:06;;;;;;;101.90;42.73;;;-2.20;99.90;;;;;;4967356;28;20192;-63
2022/12/17 17:06:39;;;;;;;103.10;43.20;;;-2.30;99.90;;;;;;4963326;28;20279;-63
2022/12/17 17:09:08;;;;;;;104.17;42.40;;;-2.30;99.90;;;;;;4968079;28;20692;-63
2022/12/17 17:11:38;;;;;;;93.07;40.03;;;-2.30;99.90;;;;;;4983005;28;20218;-63
2022/12/17 17:14:07;;;;;;;86.07;37.40;;;-2.30;99.90;;;;;;4964856;28;20195;-63
2022/12/17 17:16:36;;;;;;;96.43;38.93;;;-2.30;99.90;;;;;;4959967;28;20234;-63
2022/12/17 17:19:06;;;;;;;101.13;40.93;;;-2.30;99.90;;;;;;4968392;28;20228;-63
2022/12/17 17:21:37;;;;;;;110.00;45.90;;;-2.30;99.90;;;;;;4964192;28;21791;-63
2022/12/17 17:24:11;;;;;;;110.23;46.10;;;-2.30;99.90;;;;;;4964293;28;20192;-63
2022/12/17 17:26:49;;;;;;;112.03;46.00;;;-2.30;99.90;;;;;;4967477;28;20227;-63
2022/12/17 17:29:18;;;;;;;95.03;42.60;;;-2.30;99.90;;;;;;4972533;28;20200;-63
2022/12/17 17:31:46;;;;;;;98.07;42.17;;;-2.20;99.90;;;;;;4967288;28;20645;-63
2022/12/17 17:34:35;;;;;;;101.23;41.77;;;-2.20;99.90;;;;;;4965018;28;20619;-63
2022/12/17 17:37:03;;;;;;;100.07;43.20;;;-2.10;99.90;;;;;;4964593;28;20199;-63
2022/12/17 17:39:33;;;;;;;104.90;42.47;;;-2.00;99.90;;;;;;4970811;28;20200;-63
2022/12/17 17:42:03;;;;;;;105.20;43.13;;;-2.00;99.90;;;;;;4970861;28;20825;-63
2022/12/17 17:44:31;;;;;;;102.50;43.10;;;-2.10;99.90;;;;;;4968984;28;20204;-63
2022/12/17 17:47:00;;;;;;;96.30;42.90;;;-2.20;99.90;;;;;;4980094;28;20634;-64
2022/12/17 17:49:28;;;;;;;95.17;43.70;;;-2.30;99.90;;;;;;4980829;28;20203;-63
2022/12/17 17:51:58;;;;;;;96.73;41.67;;;-2.40;99.90;;;;;;4966266;28;20547;-63
2022/12/17 17:54:38;;;;;;;93.33;42.70;;;-2.50;99.90;;;;;;4968161;28;20653;-63
2022/12/17 17:57:09;;;;;;;101.47;42.40;;;-2.60;99.90;;;;;;4978833;28;20642;-63
2022/12/17 17:59:39;;;;;;;97.90;42.40;;;-2.70;99.90;;;;;;4964881;28;20195;-63
2022/12/17 18:02:09;;;;;;;102.10;42.67;;;-2.70;99.90;;;;;;4964950;28;20646;-63
2022/12/17 18:04:38;;;;;;;95.20;42.33;;;-2.80;99.90;;;;;;4971878;28;20204;-63
2022/12/17 18:07:07;;;;;;;103.60;44.17;;;-2.80;99.90;;;;;;4971574;28;20211;-63
2022/12/17 18:09:52;;;;;;;97.67;41.73;;;-2.80;99.90;;;;;;4961014;28;20196;-63
2022/12/17 18:15:09;;;;;;;110.43;42.47;;;-3.00;99.90;;;;;;4970109;28;20200;-63
2022/12/17 18:17:44;;;;;;;97.33;40.43;;;-2.90;99.90;;;;;;4973422;28;20239;-63
2022/12/17 18:20:12;;;;;;;98.83;42.90;;;-2.90;99.90;;;;;;5051001;28;20196;-64
2022/12/17 18:22:41;;;;;;;93.03;41.23;;;-3.00;99.90;;;;;;4969767;28;20261;-63
2022/12/17 18:25:09;;;;;;;104.83;44.50;;;-3.10;99.90;;;;;;4967979;28;20219;-63
2022/12/17 18:27:39;;;;;;;107.67;45.53;;;-3.10;99.90;;;;;;4976220;28;20210;-63
2022/12/17 18:30:09;;;;;;;103.43;43.87;;;-3.20;99.90;;;;;;4971429;28;20200;-63
2022/12/17 18:32:37;;;;;;;103.13;44.97;;;-3.20;99.90;;;;;;4971650;28;20215;-63
2022/12/17 18:35:07;;;;;;;99.97;44.93;;;-3.20;99.90;;;;;;4968813;28;20670;-63
2022/12/17 18:37:36;;;;;;;118.63;48.17;;;-3.20;99.90;;;;;;4963927;28;20191;-63
2022/12/17 18:40:05;;;;;;;110.97;47.80;;;-3.20;99.90;;;;;;4970032;28;20195;-64
2022/12/17 18:45:22;;;;;;;107.80;46.23;;;-3.20;99.90;;;;;;4969714;28;20207;-63
2022/12/17 18:47:51;;;;;;;115.63;47.67;;;-3.30;99.90;;;;;;4986750;28;20660;-63
2022/12/17 18:50:19;;;;;;;127.00;50.43;;;-3.30;99.90;;;;;;4963019;28;20212;-63
2022/12/17 18:52:47;;;;;;;119.63;48.93;;;-3.30;99.90;;;;;;4973746;28;20218;-63
2022/12/17 18:55:16;;;;;;;118.73;48.90;;;-3.10;99.90;;;;;;4972089;28;20532;-63
2022/12/17 18:57:44;;;;;;;119.93;48.40;;;-3.00;99.90;;;;;;4972648;28;20200;-63
2022/12/17 19:00:13;;;;;;;118.93;47.83;;;-2.90;99.90;;;;;;4968829;28;20196;-63
2022/12/17 19:02:44;;;;;;;111.63;46.83;;;-2.80;99.90;;;;;;4978820;28;20199;-63
2022/12/17 19:05:12;;;;;;;118.87;49.60;;;-2.80;99.90;;;;;;4969182;28;20562;-63
2022/12/17 19:07:40;;;;;;;122.23;50.17;;;-2.90;99.90;;;;;;4997100;28;20199;-63
2022/12/17 19:10:09;;;;;;;114.23;49.70;;;-3.00;99.90;;;;;;4964187;28;20191;-63
2022/12/17 19:12:40;;;;;;;111.93;46.97;;;-3.10;99.90;;;;;;4968431;28;20200;-63
2022/12/17 19:15:09;;;;;;;111.63;44.87;;;-3.20;99.90;;;;;;4967859;28;20195;-64
2022/12/17 19:17:38;;;;;;;124.13;50.27;;;-3.30;99.90;;;;;;4976042;28;20223;-63
2022/12/17 19:20:09;;;;;;;117.57;48.40;;;-3.40;99.90;;;;;;4966498;28;20203;-63
2022/12/17 19:22:37;;;;;;;118.13;47.40;;;-3.40;99.90;;;;;;4968031;28;20200;-62
2022/12/17 19:25:05;;;;;;;113.70;46.07;;;-3.50;99.90;;;;;;4967112;28;20226;-63
2022/12/17 19:27:34;;;;;;;117.37;47.87;;;-3.50;99.90;;;;;;4970560;28;20207;-63
2022/12/17 19:30:02;;;;;;;113.07;47.20;;;-3.50;99.90;;;;;;4994113;28;20542;-63
2022/12/17 19:32:30;;;;;;;120.73;48.20;;;-3.50;99.90;;;;;;4969209;28;20766;-63
2022/12/17 19:34:59;;;;;;;126.73;52.17;;;-3.50;99.90;;;;;;4963959;28;20224;-63
2022/12/17 19:37:28;;;;;;;114.50;49.30;;;-3.60;99.90;;;;;;4965461;28;20198;-63
2022/12/17 19:39:58;;;;;;;118.33;50.17;;;-3.60;99.90;;;;;;4958843;28;20199;-63
2022/12/17 19:42:26;;;;;;;125.80;49.90;;;-3.60;99.90;;;;;;4977699;28;20245;-63
2022/12/17 19:45:04;;;;;;;120.80;50.23;;;-3.60;99.90;;;;;;4967315;28;20203;-63
2022/12/17 19:47:33;;;;;;;116.87;48.67;;;-3.60;99.90;;;;;;4966315;28;20207;-63
2022/12/17 19:50:02;;;;;;;125.23;49.83;;;-3.60;99.90;;;;;;4967740;28;20196;-63
2022/12/17 19:52:31;;;;;;;123.60;48.07;;;-3.40;99.90;;;;;;4967855;28;20196;-63
2022/12/17 19:55:00;;;;;;;119.83;47.70;;;-3.30;99.90;;;;;;4965888;28;20935;-63
2022/12/17 19:57:29;;;;;;;131.47;51.63;;;-3.20;99.90;;;;;;4975012;28;20192;-63
2022/12/17 19:59:57;;;;;;;135.20;50.90;;;-3.10;99.90;;;;;;4968362;28;20191;-62
2022/12/17 20:02:25;;;;;;;135.23;53.80;;;-3.10;99.90;;;;;;4972784;28;20195;-63
2022/12/17 20:05:00;;;;;;;148.33;54.97;;;-3.00;99.90;;;;;;4972478;28;20198;-62
2022/12/17 20:07:28;;;;;;;146.70;58.10;;;-3.00;99.90;;;;;;4967672;28;20203;-63
2022/12/17 20:09:58;;;;;;;143.07;56.97;;;-3.10;99.90;;;;;;4985875;28;20827;-63
2022/12/17 20:12:26;;;;;;;157.93;59.07;;;-3.00;99.90;;;;;;4966216;28;22157;-63
2022/12/17 20:14:56;;;;;;;149.97;57.47;;;-3.00;99.90;;;;;;4967704;28;20674;-63
2022/12/17 20:17:25;;;;;;;138.90;53.57;;;-3.00;99.90;;;;;;4941520;28;20228;-62
2022/12/17 20:19:55;;;;;;;134.50;53.40;;;-3.00;99.90;;;;;;4979162;28;20188;-63
2022/12/17 20:22:25;;;;;;;134.87;52.43;;;-3.00;99.90;;;;;;4975363;28;20196;-62
2022/12/17 20:24:53;;;;;;;132.80;49.73;;;-3.00;99.90;;;;;;4972946;28;20221;-63
2022/12/17 20:27:23;;;;;;;139.37;53.67;;;-3.10;99.90;;;;;;4966453;28;20295;-63
2022/12/17 20:29:54;;;;;;;127.73;50.90;;;-3.10;99.90;;;;;;4967529;28;20204;-63
2022/12/17 20:32:22;;;;;;;127.23;49.87;;;-3.10;99.90;;;;;;4969954;28;20930;-62
2022/12/17 20:34:51;;;;;;;129.07;49.40;;;-3.10;99.90;;;;;;4980337;28;20266;-63
2022/12/17 20:37:19;;;;;;;117.23;46.63;;;-3.10;99.90;;;;;;4967746;28;20204;-63
2022/12/17 20:39:47;;;;;;;121.93;49.77;;;-3.10;99.90;;;;;;4971898;28;20662;-63
2022/12/17 20:42:16;;;;;;;135.87;51.47;;;-3.10;99.90;;;;;;4968053;28;20200;-63
2022/12/17 20:44:47;;;;;;;128.77;50.53;;;-3.10;99.90;;;;;;4970542;28;20195;-63
2022/12/17 20:47:20;;;;;;;126.30;48.97;;;-3.20;99.90;;;;;;4978607;28;20941;-62
2022/12/17 20:49:49;;;;;;;110.83;46.43;;;-3.20;99.90;;;;;;4995392;28;20193;-63
2022/12/17 20:52:17;;;;;;;116.20;46.80;;;-3.30;99.90;;;;;;4971906;28;20779;-63
2022/12/17 20:54:46;;;;;;;114.33;46.73;;;-3.30;99.90;;;;;;5002740;28;20234;-63
2022/12/17 20:57:14;;;;;;;122.20;47.17;;;-3.30;99.90;;;;;;4971144;28;20200;-62
2022/12/17 20:59:43;;;;;;;112.67;46.20;;;-3.40;99.90;;;;;;4970605;28;20199;-63
2022/12/17 21:02:13;;;;;;;126.53;46.30;;;-3.50;99.90;;;;;;4970707;28;20215;-63
2022/12/17 21:04:41;;;;;;;115.90;46.63;;;-3.50;99.90;;;;;;4978110;28;20230;-63
2022/12/17 21:07:10;;;;;;;115.50;46.47;;;-3.60;99.90;;;;;;4966687;28;20202;-63
2022/12/17 21:09:38;;;;;;;119.23;47.20;;;-3.60;99.90;;;;;;4962810;28;20274;-63
2022/12/17 21:12:08;;;;;;;117.93;47.83;;;-3.60;99.90;;;;;;4967064;28;20207;-63
2022/12/17 21:14:36;;;;;;;114.00;47.40;;;-3.70;99.90;;;;;;4982163;28;20212;-63
2022/12/17 21:17:05;;;;;;;111.73;45.37;;;-3.70;99.90;;;;;;4967026;28;20231;-63
2022/12/17 21:19:35;;;;;;;120.23;47.43;;;-3.80;99.90;;;;;;4970115;28;20202;-62
2022/12/17 21:22:04;;;;;;;115.37;48.50;;;-3.90;99.90;;;;;;4967555;28;20231;-62
2022/12/17 21:24:33;;;;;;;114.33;47.40;;;-3.90;99.90;;;;;;4969650;28;20187;-63
2022/12/17 21:27:01;;;;;;;118.20;47.67;;;-3.90;99.90;;;;;;4970228;28;20841;-63
2022/12/17 21:29:29;;;;;;;111.17;45.97;;;-4.00;99.90;;;;;;4971096;28;20257;-62
2022/12/17 21:31:58;;;;;;;109.77;45.97;;;-4.00;99.90;;;;;;4985247;28;20199;-63
2022/12/17 21:34:28;;;;;;;111.37;45.80;;;-4.00;99.90;;;;;;4978703;28;20211;-63
2022/12/17 21:36:57;;;;;;;114.97;43.87;;;-4.00;99.90;;;;;;4965272;28;20195;-63
2022/12/17 21:39:26;;;;;;;120.13;47.90;;;-4.00;99.90;;;;;;4966869;28;20210;-63
2022/12/17 21:44:40;;;;;;;110.93;45.47;;;-4.00;99.90;;;;;;4969258;28;20195;-63
2022/12/17 21:47:08;;;;;;;113.37;46.13;;;-4.00;99.90;;;;;;4977528;28;20214;-63
2022/12/17 21:49:37;;;;;;;106.03;44.50;;;-4.10;99.90;;;;;;4970862;28;20207;-63
2022/12/17 21:52:06;;;;;;;123.33;45.97;;;-4.20;99.90;;;;;;4964870;28;20643;-62
2022/12/17 21:54:38;;;;;;;107.70;44.97;;;-4.20;99.90;;;;;;4969187;28;20219;-63
2022/12/17 21:57:07;;;;;;;112.00;46.40;;;-4.20;99.90;;;;;;4967169;28;20200;-63
2022/12/17 21:59:35;;;;;;;118.90;47.00;;;-4.20;99.90;;;;;;4970456;28;20203;-63
2022/12/17 22:02:09;;;;;;;129.10;48.40;;;-4.20;99.90;;;;;;4969918;28;20286;-63
2022/12/17 22:04:38;;;;;;;132.57;51.60;;;-4.10;99.90;;;;;;4969058;28;20693;-63
2022/12/17 22:07:07;;;;;;;145.47;52.77;;;-4.10;99.90;;;;;;4965565;28;20197;-63
2022/12/17 22:09:53;;;;;;;138.03;52.03;;;-4.00;99.90;;;;;;4997937;28;20188;-62
2022/12/17 22:15:27;;;;;;;137.10;51.43;;;-4.10;99.90;;;;;;4969397;28;20334;-62
2022/12/17 22:18:13;;;;;;;130.50;52.30;;;-4.10;99.90;;;;;;4970127;28;20743;-63
2022/12/17 22:20:41;;;;;;;131.33;51.73;;;-4.20;99.90;;;;;;4977382;28;20538;-63
2022/12/17 22:23:11;;;;;;;124.47;50.30;;;-4.30;99.90;;;;;;4967581;28;20524;-63
2022/12/17 22:25:40;;;;;;;125.33;48.53;;;-4.40;99.90;;;;;;4967639;28;20208;-63
2022/12/17 22:28:10;;;;;;;127.57;50.80;;;-4.40;99.90;;;;;;4972734;28;20203;-63
2022/12/17 22:33:27;;;;;;;126.53;50.60;;;-4.60;99.90;;;;;;4965301;28;20199;-63
2022/12/17 22:36:15;;;;;;;119.03;46.87;;;-4.60;99.90;;;;;;4969251;28;20215;-63
2022/12/17 22:39:07;;;;;;;123.07;47.27;;;-4.70;99.90;;;;;;4967576;28;20208;-62
2022/12/17 22:45:05;;;;;;;148.27;51.83;;;-4.80;99.90;;;;;;4969320;28;22157;-63
2022/12/17 22:47:38;;;;;;;154.73;52.77;;;-4.90;99.90;;;;;;4959281;28;20709;-63
2022/12/17 22:50:07;;;;;;;148.13;51.87;;;-5.00;99.90;;;;;;4969366;28;20206;-63
2022/12/17 22:52:35;;;;;;;145.20;50.80;;;-5.00;99.90;;;;;;4965629;28;20202;-62
2022/12/17 22:55:45;;;;;;;142.77;49.47;;;-5.10;99.90;;;;;;4967144;28;20215;-63
2022/12/17 22:58:54;;;;;;;127.53;47.63;;;-5.10;99.90;;;;;;4970024;28;20208;-63
2022/12/17 23:02:02;;;;;;;123.47;45.40;;;-5.20;99.90;;;;;;4971719;28;20195;-63
2022/12/17 23:05:14;;;;;;;133.40;46.83;;;-5.30;99.90;;;;;;4975467;28;20198;-62
2022/12/17 23:08:22;;;;;;;127.03;44.17;;;-5.40;99.90;;;;;;4963168;28;20280;-63
2022/12/17 23:11:31;;;;;;;124.70;45.40;;;-5.50;99.90;;;;;;4968386;28;20682;-63
2022/12/17 23:14:40;;;;;;;119.27;43.50;;;-5.50;99.90;;;;;;4961542;28;20245;-62
2022/12/17 23:17:49;;;;;;;117.77;42.90;;;-5.60;99.90;;;;;;4969462;28;20227;-62
2022/12/17 23:21:04;;;;;;;121.17;41.87;;;-5.60;99.90;;;;;;4966985;28;20712;-63
2022/12/17 23:24:17;;;;;;;126.00;44.03;;;-5.70;99.90;;;;;;4969784;28;20208;-63
2022/12/17 23:27:26;;;;;;;132.17;43.97;;;-5.80;99.90;;;;;;4970422;28;20204;-62
2022/12/17 23:30:36;;;;;;;109.10;41.57;;;-5.80;99.90;;;;;;4970321;28;20304;-63
2022/12/17 23:33:45;;;;;;;113.73;40.97;;;-5.80;99.90;;;;;;4972194;28;20306;-63
2022/12/17 23:36:53;;;;;;;109.73;41.03;;;-5.90;99.90;;;;;;4977339;28;20222;-63
2022/12/17 23:40:01;;;;;;;109.37;41.63;;;-5.90;99.90;;;;;;4974077;28;20592;-62
2022/12/17 23:43:11;;;;;;;111.83;42.77;;;-6.00;99.90;;;;;;4968891;28;20204;-62
2022/12/17 23:46:26;;;;;;;109.23;42.00;;;-6.00;99.90;;;;;;4972787;28;20223;-63
2022/12/17 23:49:35;;;;;;;109.97;42.43;;;-6.10;99.90;;;;;;4980626;28;20227;-63
2022/12/17 23:52:43;;;;;;;107.07;40.60;;;-6.20;99.90;;;;;;4975915;28;20298;-62
2022/12/17 23:55:52;;;;;;;113.50;41.20;;;-6.30;99.90;;;;;;4961745;28;20789;-61
2022/12/17 23:58:23;;;;;;;110.33;40.97;;;-6.30;99.90;;;;;;4936343;28;20201;-63
